Nearby METAR Reports

 

KLEX - Lexington, Kentucky, USA
Distance from station: WNW 7mi, 11km
Updated: Wed, 15-Aug-2018 2:54am EDT
Clear
Clear
 Wind from SE
Wind: SE 6 mph , 9 km/h
Temperature: 72°F , 22°C
Dew Point: 64°F , 18°C
Humidity: 78%
Barometer: 30.05 inHg , 1017.6 hPa
Clouds: Clear
Visibility: 10 miles , 16 km
2018/08/15 06:54 KLEX 150654Z 14005KT 10SM CLR 22/18 A3005 RMK AO2 SLP165 T02170183 $
KFFT - Frankfort, Kentucky, USA
Distance from station: WNW 26mi, 42km
Updated: Wed, 15-Aug-2018 2:53am EDT
Clear
Clear
 Wind from calm
Wind: Calm
Temperature: 70°F , 21°C
Dew Point: 66°F , 19°C
Humidity: 88%
Barometer: 30.03 inHg , 1016.9 hPa
Clouds: Clear
Visibility: 10 miles , 16 km
2018/08/15 06:53 KFFT 150653Z AUTO 00000KT 10SM CLR 21/19 A3003 RMK AO2 SLP160 T02110194
 
KIOB - Mount Sterling, Kentucky, USA
Distance from station: E 27mi, 44km
Updated: Wed, 15-Aug-2018 3:15am EDT
Clear
Clear
 Wind from SSW
Wind: SSW 3 mph , 6 km/h
Temperature: 66°F , 19°C
Dew Point: 64°F , 18°C
Humidity: 94%
Barometer: 30.07 inHg , 1018.3 hPa
Clouds: Clear
Visibility: 10 miles , 16 km
2018/08/15 07:15 KIOB 150715Z AUTO 20003KT 10SM CLR 19/18 A3007 RMK AO2
KDVK - Danville, Kentucky, USA
Distance from station: SSW 33mi, 53km
Updated: Wed, 15-Aug-2018 3:15am EDT
Clear
Clear
 Wind from SSE
Wind: SSE 5 mph , 7 km/h
Temperature: 66°F , 19°C
Dew Point: 64°F , 18°C
Humidity: 94%
Barometer: 30.06 inHg , 1017.9 hPa
Clouds: Clear
Visibility: 10 miles , 16 km
2018/08/15 07:15 KDVK 150715Z AUTO 16004KT 10SM CLR 19/18 A3006 RMK AO2